sensor_id;sensor_type;location;lat;lon;timestamp;pressure;altitude;pressure_sealevel;temperature;humidity
22572;BME280;11452;53.368;14.658;2022-12-18T00:05:04;102672.05;;;-1.56;74.45
22572;BME280;11452;53.368;14.658;2022-12-18T00:10:10;102665.25;;;-1.48;74.35
22572;BME280;11452;53.368;14.658;2022-12-18T00:15:20;102663.98;;;-1.64;73.59
22572;BME280;11452;53.368;14.658;2022-12-18T00:20:26;102661.57;;;-1.56;74.31
22572;BME280;11452;53.368;14.658;2022-12-18T00:25:33;102671.95;;;-1.42;74.24
22572;BME280;11452;53.368;14.658;2022-12-18T00:30:39;102668.41;;;-1.44;74.07
22572;BME280;11452;53.368;14.658;2022-12-18T00:35:44;102672.58;;;-1.35;74.13
22572;BME280;11452;53.368;14.658;2022-12-18T00:40:50;102671.19;;;-1.38;73.98
22572;BME280;11452;53.368;14.658;2022-12-18T00:45:56;102671.19;;;-1.38;74.04
22572;BME280;11452;53.368;14.658;2022-12-18T00:51:01;102680.52;;;-1.32;73.89
22572;BME280;11452;53.368;14.658;2022-12-18T00:56:07;102683.66;;;-1.28;73.76
22572;BME280;11452;53.368;14.658;2022-12-18T01:01:12;102676.09;;;-1.34;73.79
22572;BME280;11452;53.368;14.658;2022-12-18T01:06:18;102679.76;;;-1.26;74.00
22572;BME280;11452;53.368;14.658;2022-12-18T01:11:25;102683.50;;;-1.17;74.02
22572;BME280;11452;53.368;14.658;2022-12-18T01:16:31;102686.39;;;-1.23;73.71
22572;BME280;11452;53.368;14.658;2022-12-18T01:21:37;102695.16;;;-1.23;73.77
22572;BME280;11452;53.368;14.658;2022-12-18T01:26:42;102702.05;;;-1.26;73.32
22572;BME280;11452;53.368;14.658;2022-12-18T01:31:49;102704.29;;;-1.24;73.29
22572;BME280;11452;53.368;14.658;2022-12-18T01:36:55;102712.84;;;-1.33;73.13
22572;BME280;11452;53.368;14.658;2022-12-18T01:42:03;102704.35;;;-1.40;73.00
22572;BME280;11452;53.368;14.658;2022-12-18T01:47:09;102707.78;;;-1.77;72.64
22572;BME280;11452;53.368;14.658;2022-12-18T01:52:15;102705.41;;;-1.84;72.87
22572;BME280;11452;53.368;14.658;2022-12-18T01:57:23;102703.80;;;-1.79;72.81
22572;BME280;11452;53.368;14.658;2022-12-18T02:02:29;102711.67;;;-1.79;73.57
22572;BME280;11452;53.368;14.658;2022-12-18T02:07:50;102715.23;;;-1.59;73.94
22572;BME280;11452;53.368;14.658;2022-12-18T02:13:02;102723.47;;;-1.61;73.76
22572;BME280;11452;53.368;14.658;2022-12-18T02:18:11;102730.23;;;-1.54;73.64
22572;BME280;11452;53.368;14.658;2022-12-18T02:28:45;102721.95;;;-1.53;73.71
22572;BME280;11452;53.368;14.658;2022-12-18T02:33:53;102722.92;;;-1.65;73.01
22572;BME280;11452;53.368;14.658;2022-12-18T02:39:01;102733.41;;;-1.48;74.04
22572;BME280;11452;53.368;14.658;2022-12-18T02:44:10;102735.98;;;-2.16;73.11
22572;BME280;11452;53.368;14.658;2022-12-18T02:49:40;102731.30;;;-2.12;73.25
22572;BME280;11452;53.368;14.658;2022-12-18T02:55:13;102741.64;;;-2.16;73.34
22572;BME280;11452;53.368;14.658;2022-12-18T03:00:27;102749.59;;;-2.13;73.71
22572;BME280;11452;53.368;14.658;2022-12-18T03:05:37;102740.13;;;-2.38;73.42
22572;BME280;11452;53.368;14.658;2022-12-18T03:10:51;102740.51;;;-2.40;73.80
22572;BME280;11452;53.368;14.658;2022-12-18T03:15:59;102743.75;;;-2.19;74.51
22572;BME280;11452;53.368;14.658;2022-12-18T03:21:08;102751.92;;;-2.08;73.73
22572;BME280;11452;53.368;14.658;2022-12-18T03:26:21;102756.61;;;-2.12;74.14
22572;BME280;11452;53.368;14.658;2022-12-18T03:31:30;102764.04;;;-2.12;73.75
22572;BME280;11452;53.368;14.658;2022-12-18T03:36:37;102760.34;;;-2.18;73.27
22572;BME280;11452;53.368;14.658;2022-12-18T03:41:47;102764.32;;;-2.17;74.22
22572;BME280;11452;53.368;14.658;2022-12-18T03:47:13;102774.80;;;-2.17;73.84
22572;BME280;11452;53.368;14.658;2022-12-18T03:52:36;102779.42;;;-2.08;73.69
22572;BME280;11452;53.368;14.658;2022-12-18T03:57:43;102774.08;;;-2.41;73.23
22572;BME280;11452;53.368;14.658;2022-12-18T04:02:52;102774.64;;;-2.23;74.32
22572;BME280;11452;53.368;14.658;2022-12-18T04:08:00;102782.33;;;-2.13;73.97
22572;BME280;11452;53.368;14.658;2022-12-18T04:13:09;102783.88;;;-2.04;74.10
22572;BME280;11452;53.368;14.658;2022-12-18T04:18:16;102791.16;;;-2.10;74.00
22572;BME280;11452;53.368;14.658;2022-12-18T04:23:23;102784.95;;;-1.97;74.07
22572;BME280;11452;53.368;14.658;2022-12-18T04:28:29;102784.53;;;-1.81;74.30
22572;BME280;11452;53.368;14.658;2022-12-18T04:33:35;102773.63;;;-1.96;73.20
22572;BME280;11452;53.368;14.658;2022-12-18T04:38:42;102778.13;;;-1.92;73.74
22572;BME280;11452;53.368;14.658;2022-12-18T04:43:49;102785.09;;;-1.93;73.69
22572;BME280;11452;53.368;14.658;2022-12-18T04:48:55;102795.72;;;-2.02;73.16
22572;BME280;11452;53.368;14.658;2022-12-18T04:54:01;102796.83;;;-2.10;73.51
22572;BME280;11452;53.368;14.658;2022-12-18T04:59:06;102792.44;;;-1.95;73.74
22572;BME280;11452;53.368;14.658;2022-12-18T05:04:12;102781.35;;;-2.01;73.27
22572;BME280;11452;53.368;14.658;2022-12-18T05:09:17;102781.72;;;-2.04;73.22
22572;BME280;11452;53.368;14.658;2022-12-18T05:14:23;102786.13;;;-2.02;73.59
22572;BME280;11452;53.368;14.658;2022-12-18T05:19:28;102791.84;;;-1.85;73.82
22572;BME280;11452;53.368;14.658;2022-12-18T05:24:33;102793.05;;;-1.90;73.31
22572;BME280;11452;53.368;14.658;2022-12-18T05:29:39;102815.64;;;-1.93;73.20
22572;BME280;11452;53.368;14.658;2022-12-18T05:34:44;102822.78;;;-2.18;73.12
22572;BME280;11452;53.368;14.658;2022-12-18T05:39:50;102826.58;;;-2.08;73.69
22572;BME280;11452;53.368;14.658;2022-12-18T05:44:55;102835.69;;;-2.10;73.43
22572;BME280;11452;53.368;14.658;2022-12-18T05:50:01;102846.23;;;-1.92;73.83
22572;BME280;11452;53.368;14.658;2022-12-18T05:55:07;102855.23;;;-1.83;73.68
22572;BME280;11452;53.368;14.658;2022-12-18T06:00:14;102856.03;;;-1.85;73.46
22572;BME280;11452;53.368;14.658;2022-12-18T06:05:20;102869.60;;;-1.84;73.56
22572;BME280;11452;53.368;14.658;2022-12-18T06:10:25;102868.98;;;-1.91;73.44
22572;BME280;11452;53.368;14.658;2022-12-18T06:15:31;102874.66;;;-1.76;73.59
22572;BME280;11452;53.368;14.658;2022-12-18T06:20:36;102876.16;;;-1.84;72.77
22572;BME280;11452;53.368;14.658;2022-12-18T06:25:44;102876.39;;;-1.77;73.21
22572;BME280;11452;53.368;14.658;2022-12-18T06:30:49;102869.70;;;-1.81;73.03
22572;BME280;11452;53.368;14.658;2022-12-18T06:36:04;102876.99;;;-1.85;73.15
22572;BME280;11452;53.368;14.658;2022-12-18T06:41:12;102888.09;;;-1.80;73.09
22572;BME280;11452;53.368;14.658;2022-12-18T06:46:18;102896.27;;;-1.83;73.00
22572;BME280;11452;53.368;14.658;2022-12-18T06:51:25;102907.77;;;-1.94;72.30
22572;BME280;11452;53.368;14.658;2022-12-18T06:56:31;102917.21;;;-2.13;72.33
22572;BME280;11452;53.368;14.658;2022-12-18T07:01:37;102928.83;;;-2.05;73.04
22572;BME280;11452;53.368;14.658;2022-12-18T07:06:43;102912.16;;;-1.93;72.65
22572;BME280;11452;53.368;14.658;2022-12-18T07:11:48;102914.41;;;-1.91;72.81
22572;BME280;11452;53.368;14.658;2022-12-18T07:16:54;102916.19;;;-1.90;72.64
22572;BME280;11452;53.368;14.658;2022-12-18T07:22:00;102916.82;;;-1.83;73.00
22572;BME280;11452;53.368;14.658;2022-12-18T07:27:06;102920.47;;;-1.78;72.79
22572;BME280;11452;53.368;14.658;2022-12-18T07:32:12;102914.48;;;-1.73;72.89
22572;BME280;11452;53.368;14.658;2022-12-18T07:37:18;102906.33;;;-1.83;72.23
22572;BME280;11452;53.368;14.658;2022-12-18T07:42:23;102919.73;;;-2.02;72.26
22572;BME280;11452;53.368;14.658;2022-12-18T07:47:35;102928.53;;;-2.00;72.49
22572;BME280;11452;53.368;14.658;2022-12-18T07:52:40;102939.88;;;-1.87;72.75
22572;BME280;11452;53.368;14.658;2022-12-18T07:57:46;102937.59;;;-2.03;71.81
22572;BME280;11452;53.368;14.658;2022-12-18T08:02:53;102919.92;;;-1.96;72.58
22572;BME280;11452;53.368;14.658;2022-12-18T08:07:59;102915.63;;;-2.08;72.46
22572;BME280;11452;53.368;14.658;2022-12-18T08:13:04;102922.13;;;-2.24;72.07
22572;BME280;11452;53.368;14.658;2022-12-18T08:18:10;102933.66;;;-2.17;72.51
22572;BME280;11452;53.368;14.658;2022-12-18T08:23:17;102929.94;;;-2.11;72.81
22572;BME280;11452;53.368;14.658;2022-12-18T08:28:22;102945.02;;;-1.90;73.24
22572;BME280;11452;53.368;14.658;2022-12-18T08:33:28;102965.67;;;-1.99;72.46
22572;BME280;11452;53.368;14.658;2022-12-18T08:38:33;102969.58;;;-2.27;72.62
22572;BME280;11452;53.368;14.658;2022-12-18T08:43:39;102964.83;;;-1.98;73.47
22572;BME280;11452;53.368;14.658;2022-12-18T08:49:03;102958.47;;;-1.78;73.41
22572;BME280;11452;53.368;14.658;2022-12-18T08:54:11;102952.66;;;-1.82;73.29
22572;BME280;11452;53.368;14.658;2022-12-18T08:59:18;102955.36;;;-1.64;73.27
22572;BME280;11452;53.368;14.658;2022-12-18T09:04:24;102953.23;;;-1.48;73.55
22572;BME280;11452;53.368;14.658;2022-12-18T09:09:30;102963.56;;;-1.54;72.68
22572;BME280;11452;53.368;14.658;2022-12-18T09:14:36;102976.37;;;-1.34;73.73
22572;BME280;11452;53.368;14.658;2022-12-18T09:19:41;102972.43;;;-1.34;73.07
22572;BME280;11452;53.368;14.658;2022-12-18T09:24:49;102975.06;;;-1.19;73.25
22572;BME280;11452;53.368;14.658;2022-12-18T09:29:54;102956.05;;;-1.10;73.21
22572;BME280;11452;53.368;14.658;2022-12-18T09:35:00;102963.28;;;-0.86;73.47
22572;BME280;11452;53.368;14.658;2022-12-18T09:40:09;102967.09;;;-1.06;71.90
22572;BME280;11452;53.368;14.658;2022-12-18T09:45:14;102964.09;;;-1.20;72.69
22572;BME280;11452;53.368;14.658;2022-12-18T09:50:32;102967.00;;;-1.25;72.50
22572;BME280;11452;53.368;14.658;2022-12-18T09:55:44;102971.30;;;-1.43;72.01
22572;BME280;11452;53.368;14.658;2022-12-18T10:00:55;102979.55;;;-1.30;72.31
22572;BME280;11452;53.368;14.658;2022-12-18T10:16:53;102981.46;;;-0.93;71.66
22572;BME280;11452;53.368;14.658;2022-12-18T10:27:18;102994.58;;;-0.93;72.38
22572;BME280;11452;53.368;14.658;2022-12-18T10:32:26;102987.96;;;-0.79;72.25
22572;BME280;11452;53.368;14.658;2022-12-18T10:37:32;102985.23;;;-0.66;72.19
22572;BME280;11452;53.368;14.658;2022-12-18T10:42:38;102976.16;;;-0.62;72.00
22572;BME280;11452;53.368;14.658;2022-12-18T10:47:48;102963.62;;;-0.56;71.70
22572;BME280;11452;53.368;14.658;2022-12-18T10:52:57;102955.33;;;-0.72;71.07
22572;BME280;11452;53.368;14.658;2022-12-18T10:58:23;102943.55;;;-0.53;71.90
22572;BME280;11452;53.368;14.658;2022-12-18T11:03:33;102950.97;;;-0.54;71.62
22572;BME280;11452;53.368;14.658;2022-12-18T11:08:57;102952.70;;;-0.56;71.16
22572;BME280;11452;53.368;14.658;2022-12-18T11:14:18;102953.08;;;-0.58;71.05
22572;BME280;11452;53.368;14.658;2022-12-18T11:19:41;102945.04;;;-0.64;71.22
22572;BME280;11452;53.368;14.658;2022-12-18T11:24:42;102923.27;;;-0.60;71.17
22572;BME280;11452;53.368;14.658;2022-12-18T11:29:50;102929.02;;;-0.57;71.23
22572;BME280;11452;53.368;14.658;2022-12-18T11:40:37;102929.75;;;-0.80;70.67
22572;BME280;11452;53.368;14.658;2022-12-18T11:45:52;102927.13;;;-0.80;70.53
22572;BME280;11452;53.368;14.658;2022-12-18T11:51:00;102938.72;;;-0.88;71.24
22572;BME280;11452;53.368;14.658;2022-12-18T12:01:55;102924.75;;;-0.52;71.78
22572;BME280;11452;53.368;14.658;2022-12-18T12:17:36;102917.02;;;-1.15;70.51
22572;BME280;11452;53.368;14.658;2022-12-18T12:22:51;102910.03;;;-1.15;70.89
22572;BME280;11452;53.368;14.658;2022-12-18T12:38:43;102918.80;;;-0.45;72.52
22572;BME280;11452;53.368;14.658;2022-12-18T12:43:51;102927.31;;;-0.37;71.99
22572;BME280;11452;53.368;14.658;2022-12-18T12:49:01;102929.63;;;-0.31;71.62
22572;BME280;11452;53.368;14.658;2022-12-18T12:54:21;102924.28;;;-0.53;70.49
22572;BME280;11452;53.368;14.658;2022-12-18T13:04:52;102919.03;;;-0.53;71.38
22572;BME280;11452;53.368;14.658;2022-12-18T13:15:37;102948.30;;;-0.55;71.39
22572;BME280;11452;53.368;14.658;2022-12-18T13:36:47;102972.81;;;-0.39;71.72
22572;BME280;11452;53.368;14.658;2022-12-18T13:42:39;102979.13;;;-0.48;70.90
22572;BME280;11452;53.368;14.658;2022-12-18T13:47:32;102975.58;;;-0.50;71.27
22572;BME280;11452;53.368;14.658;2022-12-18T13:52:26;102975.06;;;-0.53;70.95
22572;BME280;11452;53.368;14.658;2022-12-18T13:57:35;102971.55;;;-0.53;70.74
22572;BME280;11452;53.368;14.658;2022-12-18T14:02:44;102957.70;;;-0.48;71.25
22572;BME280;11452;53.368;14.658;2022-12-18T14:07:53;102956.27;;;-0.70;70.86
22572;BME280;11452;53.368;14.658;2022-12-18T14:13:05;102957.44;;;-0.76;70.82
22572;BME280;11452;53.368;14.658;2022-12-18T14:18:23;102953.51;;;-0.74;71.00
22572;BME280;11452;53.368;14.658;2022-12-18T14:23:38;102932.45;;;-0.77;70.69
22572;BME280;11452;53.368;14.658;2022-12-18T14:28:44;102939.52;;;-0.90;70.52
22572;BME280;11452;53.368;14.658;2022-12-18T14:33:51;102942.28;;;-0.86;71.12
22572;BME280;11452;53.368;14.658;2022-12-18T14:38:58;102927.04;;;-0.83;71.05
22572;BME280;11452;53.368;14.658;2022-12-18T14:44:07;102904.16;;;-1.05;70.49
22572;BME280;11452;53.368;14.658;2022-12-18T14:49:22;102895.70;;;-1.10;70.63
22572;BME280;11452;53.368;14.658;2022-12-18T14:54:28;102912.98;;;-1.18;70.64
22572;BME280;11452;53.368;14.658;2022-12-18T14:59:35;102919.41;;;-1.23;70.93
22572;BME280;11452;53.368;14.658;2022-12-18T15:04:42;102912.29;;;-1.11;71.10
22572;BME280;11452;53.368;14.658;2022-12-18T15:20:52;102875.11;;;-1.28;71.26
22572;BME280;11452;53.368;14.658;2022-12-18T15:26:02;102879.41;;;-1.31;71.23
22572;BME280;11452;53.368;14.658;2022-12-18T15:36:23;102882.62;;;-1.42;71.58
22572;BME280;11452;53.368;14.658;2022-12-18T15:41:35;102885.28;;;-1.40;71.81
22572;BME280;11452;53.368;14.658;2022-12-18T15:46:41;102896.15;;;-1.42;71.56
22572;BME280;11452;53.368;14.658;2022-12-18T15:51:58;102893.38;;;-1.32;71.68
22572;BME280;11452;53.368;14.658;2022-12-18T15:56:57;102884.85;;;-1.24;71.81
22572;BME280;11452;53.368;14.658;2022-12-18T16:02:21;102884.77;;;-1.27;71.76
22572;BME280;11452;53.368;14.658;2022-12-18T16:07:27;102880.07;;;-1.23;71.94
22572;BME280;11452;53.368;14.658;2022-12-18T16:12:34;102883.08;;;-1.25;71.65
22572;BME280;11452;53.368;14.658;2022-12-18T16:17:41;102873.28;;;-1.32;71.77
22572;BME280;11452;53.368;14.658;2022-12-18T16:22:47;102870.16;;;-1.34;71.92
22572;BME280;11452;53.368;14.658;2022-12-18T16:27:54;102852.68;;;-1.34;71.71
22572;BME280;11452;53.368;14.658;2022-12-18T16:33:00;102848.33;;;-1.33;72.04
22572;BME280;11452;53.368;14.658;2022-12-18T16:38:06;102846.59;;;-1.33;72.30
22572;BME280;11452;53.368;14.658;2022-12-18T16:43:12;102857.69;;;-1.26;72.14
22572;BME280;11452;53.368;14.658;2022-12-18T16:48:18;102867.11;;;-1.34;71.85
22572;BME280;11452;53.368;14.658;2022-12-18T16:53:23;102867.19;;;-1.31;72.24
22572;BME280;11452;53.368;14.658;2022-12-18T16:58:29;102838.35;;;-1.29;72.27
22572;BME280;11452;53.368;14.658;2022-12-18T17:03:35;102838.72;;;-1.33;72.39
22572;BME280;11452;53.368;14.658;2022-12-18T17:08:41;102851.47;;;-1.29;72.31
22572;BME280;11452;53.368;14.658;2022-12-18T17:13:48;102846.48;;;-1.20;72.50
22572;BME280;11452;53.368;14.658;2022-12-18T17:18:54;102838.02;;;-1.26;72.43
22572;BME280;11452;53.368;14.658;2022-12-18T17:24:00;102842.42;;;-1.25;72.40
22572;BME280;11452;53.368;14.658;2022-12-18T17:29:07;102849.31;;;-1.28;72.20
22572;BME280;11452;53.368;14.658;2022-12-18T17:34:14;102856.57;;;-1.35;71.85
22572;BME280;11452;53.368;14.658;2022-12-18T17:39:20;102868.42;;;-1.50;71.89
22572;BME280;11452;53.368;14.658;2022-12-18T17:44:26;102864.97;;;-1.47;72.06
22572;BME280;11452;53.368;14.658;2022-12-18T17:49:32;102858.42;;;-1.47;72.35
22572;BME280;11452;53.368;14.658;2022-12-18T17:54:37;102850.69;;;-1.43;72.27
22572;BME280;11452;53.368;14.658;2022-12-18T17:59:45;102849.68;;;-1.32;72.38
22572;BME280;11452;53.368;14.658;2022-12-18T18:04:51;102854.59;;;-1.27;72.60
22572;BME280;11452;53.368;14.658;2022-12-18T18:09:56;102864.25;;;-0.74;71.11
22572;BME280;11452;53.368;14.658;2022-12-18T18:15:02;102870.39;;;-1.08;71.56
22572;BME280;11452;53.368;14.658;2022-12-18T18:20:09;102880.11;;;-1.21;71.79
22572;BME280;11452;53.368;14.658;2022-12-18T18:25:17;102882.52;;;-1.29;71.58
22572;BME280;11452;53.368;14.658;2022-12-18T18:30:23;102874.04;;;-1.36;71.52
22572;BME280;11452;53.368;14.658;2022-12-18T18:35:29;102891.51;;;-1.36;71.81
22572;BME280;11452;53.368;14.658;2022-12-18T18:40:37;102900.87;;;-1.29;71.82
22572;BME280;11452;53.368;14.658;2022-12-18T18:45:43;102896.89;;;-1.32;71.73
22572;BME280;11452;53.368;14.658;2022-12-18T18:50:58;102884.44;;;-1.39;71.64
22572;BME280;11452;53.368;14.658;2022-12-18T18:56:05;102882.33;;;-1.36;71.69
22572;BME280;11452;53.368;14.658;2022-12-18T19:01:20;102878.27;;;-1.41;71.30
22572;BME280;11452;53.368;14.658;2022-12-18T19:06:26;102874.13;;;-1.33;71.83
22572;BME280;11452;53.368;14.658;2022-12-18T19:11:33;102869.59;;;-1.38;71.51
22572;BME280;11452;53.368;14.658;2022-12-18T19:16:56;102848.75;;;-1.34;71.50
22572;BME280;11452;53.368;14.658;2022-12-18T19:22:03;102842.35;;;-1.44;71.26
22572;BME280;11452;53.368;14.658;2022-12-18T19:27:08;102836.73;;;-1.42;71.44
22572;BME280;11452;53.368;14.658;2022-12-18T19:32:14;102824.33;;;-1.47;71.36
22572;BME280;11452;53.368;14.658;2022-12-18T19:37:20;102830.98;;;-1.44;71.58
22572;BME280;11452;53.368;14.658;2022-12-18T19:42:25;102831.81;;;-1.45;71.49
22572;BME280;11452;53.368;14.658;2022-12-18T19:47:32;102828.97;;;-1.54;71.27
22572;BME280;11452;53.368;14.658;2022-12-18T19:52:38;102815.86;;;-1.54;71.23
22572;BME280;11452;53.368;14.658;2022-12-18T19:57:44;102808.41;;;-1.55;71.12
22572;BME280;11452;53.368;14.658;2022-12-18T20:02:49;102800.25;;;-1.65;70.97
22572;BME280;11452;53.368;14.658;2022-12-18T20:07:56;102795.19;;;-1.75;71.03
22572;BME280;11452;53.368;14.658;2022-12-18T20:13:02;102785.70;;;-1.87;71.04
22572;BME280;11452;53.368;14.658;2022-12-18T20:18:09;102784.34;;;-1.89;71.10
22572;BME280;11452;53.368;14.658;2022-12-18T20:23:15;102768.34;;;-1.98;71.35
22572;BME280;11452;53.368;14.658;2022-12-18T20:28:23;102760.62;;;-2.09;71.25
22572;BME280;11452;53.368;14.658;2022-12-18T20:33:29;102754.97;;;-2.08;71.43
22572;BME280;11452;53.368;14.658;2022-12-18T20:38:35;102762.69;;;-2.13;71.33
22572;BME280;11452;53.368;14.658;2022-12-18T20:43:44;102758.05;;;-1.59;69.88
22572;BME280;11452;53.368;14.658;2022-12-18T20:48:50;102753.84;;;-2.01;70.99
22572;BME280;11452;53.368;14.658;2022-12-18T20:53:55;102749.08;;;-2.16;71.15
22572;BME280;11452;53.368;14.658;2022-12-18T20:59:02;102744.72;;;-2.31;71.14
22572;BME280;11452;53.368;14.658;2022-12-18T21:04:08;102740.88;;;-2.28;71.54
22572;BME280;11452;53.368;14.658;2022-12-18T21:09:14;102724.05;;;-2.36;71.40
22572;BME280;11452;53.368;14.658;2022-12-18T21:14:22;102724.74;;;-2.43;71.50
22572;BME280;11452;53.368;14.658;2022-12-18T21:19:28;102721.47;;;-2.50;71.61
22572;BME280;11452;53.368;14.658;2022-12-18T21:24:34;102715.20;;;-2.55;71.37
22572;BME280;11452;53.368;14.658;2022-12-18T21:29:40;102715.99;;;-2.58;71.59
22572;BME280;11452;53.368;14.658;2022-12-18T21:34:47;102707.77;;;-2.56;71.81
22572;BME280;11452;53.368;14.658;2022-12-18T21:39:52;102699.05;;;-2.70;71.43
22572;BME280;11452;53.368;14.658;2022-12-18T21:44:58;102698.44;;;-2.76;71.48
22572;BME280;11452;53.368;14.658;2022-12-18T21:50:04;102687.55;;;-2.75;71.62
22572;BME280;11452;53.368;14.658;2022-12-18T21:55:09;102684.42;;;-2.78;71.81
22572;BME280;11452;53.368;14.658;2022-12-18T22:00:15;102679.50;;;-2.83;71.60
22572;BME280;11452;53.368;14.658;2022-12-18T22:05:23;102684.27;;;-2.84;71.73
22572;BME280;11452;53.368;14.658;2022-12-18T22:10:28;102677.16;;;-2.88;71.68
22572;BME280;11452;53.368;14.658;2022-12-18T22:15:33;102680.09;;;-2.92;71.62
22572;BME280;11452;53.368;14.658;2022-12-18T22:20:39;102667.80;;;-2.94;71.80
22572;BME280;11452;53.368;14.658;2022-12-18T22:25:45;102660.72;;;-2.84;72.01
22572;BME280;11452;53.368;14.658;2022-12-18T22:30:51;102654.41;;;-2.91;71.74
22572;BME280;11452;53.368;14.658;2022-12-18T22:36:04;102650.77;;;-2.82;71.89
22572;BME280;11452;53.368;14.658;2022-12-18T22:41:10;102645.39;;;-2.86;71.63
22572;BME280;11452;53.368;14.658;2022-12-18T22:46:17;102628.89;;;-2.99;71.52
22572;BME280;11452;53.368;14.658;2022-12-18T22:51:23;102630.14;;;-3.01;71.79
22572;BME280;11452;53.368;14.658;2022-12-18T22:56:29;102630.77;;;-2.94;71.86
22572;BME280;11452;53.368;14.658;2022-12-18T23:01:35;102623.81;;;-2.93;71.74
22572;BME280;11452;53.368;14.658;2022-12-18T23:06:44;102615.45;;;-2.96;71.89
22572;BME280;11452;53.368;14.658;2022-12-18T23:11:50;102608.45;;;-2.97;71.80
22572;BME280;11452;53.368;14.658;2022-12-18T23:16:55;102602.84;;;-2.95;71.94
22572;BME280;11452;53.368;14.658;2022-12-18T23:22:01;102585.56;;;-2.90;71.95
22572;BME280;11452;53.368;14.658;2022-12-18T23:27:08;102568.89;;;-2.93;71.65
22572;BME280;11452;53.368;14.658;2022-12-18T23:32:15;102570.16;;;-2.95;71.92
22572;BME280;11452;53.368;14.658;2022-12-18T23:37:20;102564.97;;;-2.93;71.84
22572;BME280;11452;53.368;14.658;2022-12-18T23:42:27;102561.64;;;-2.88;71.76
22572;BME280;11452;53.368;14.658;2022-12-18T23:47:33;102553.38;;;-2.87;71.87
22572;BME280;11452;53.368;14.658;2022-12-18T23:52:39;102550.44;;;-2.84;72.03
22572;BME280;11452;53.368;14.658;2022-12-18T23:57:44;102541.78;;;-2.81;71.99
